Time;durP1;ratioP1;P1;durP2;ratioP2;P2;SDS_P1;SDS_P2;PMS_P1;PMS_P2;Temp;Humidity;BMP_temperature;BMP_pressure;BME280_temperature;BME280_humidity;BME280_pressure;Samples;Min_cycle;Max_cycle;Signal;HPM_P1;HPM_P2
2022/06/22 00:01:36;;;;;;;2.53;1.40;;;14.40;99.90;;;;;;5123829;27;20046;-58
2022/06/22 00:04:03;;;;;;;3.30;1.55;;;14.40;99.90;;;;;;5124566;28;20424;-57
2022/06/22 00:06:35;;;;;;;2.88;1.70;;;14.40;99.90;;;;;;5124093;27;20104;-57
2022/06/22 00:09:01;;;;;;;2.67;1.50;;;14.40;99.90;;;;;;5124176;27;20039;-58
2022/06/22 00:11:28;;;;;;;3.35;1.30;;;14.40;99.90;;;;;;5123871;28;20519;-59
2022/06/22 00:13:58;;;;;;;5.13;1.45;;;14.50;99.90;;;;;;5122909;27;20043;-59
2022/06/22 00:16:33;;;;;;;3.80;1.50;;;14.50;99.90;;;;;;5121853;28;20043;-59
2022/06/22 00:19:00;;;;;;;4.77;1.57;;;14.50;99.90;;;;;;5110463;28;20035;-58
2022/06/22 00:21:34;;;;;;;2.25;1.42;;;14.50;99.90;;;;;;5110981;28;20039;-59
2022/06/22 00:24:30;;;;;;;5.45;1.60;;;14.50;99.90;;;;;;5110740;28;20043;-59
2022/06/22 00:27:13;;;;;;;3.15;1.45;;;14.50;99.90;;;;;;5096962;28;20056;-59
2022/06/22 00:29:39;;;;;;;5.05;1.98;;;14.40;99.90;;;;;;5110613;28;20031;-61
2022/06/22 00:32:31;;;;;;;;;;;14.40;99.90;;;;;;5110188;28;20450;-61
2022/06/22 00:35:35;;;;;;;2.53;1.40;;;14.40;99.90;;;;;;5107292;28;19915;-61
2022/06/22 00:38:12;;;;;;;1.65;1.38;;;14.40;99.90;;;;;;5110338;27;20035;-61
2022/06/22 00:40:48;;;;;;;;;;;;;;;;;;;;;
2022/06/22 00:43:15;;;;;;;;;;;14.40;99.90;;;;;;5106813;27;20104;-61
2022/06/22 00:45:42;;;;;;;3.28;1.50;;;14.40;99.90;;;;;;5109048;28;19919;-61
2022/06/22 00:48:26;;;;;;;1.95;1.42;;;14.40;99.90;;;;;;5110087;28;20047;-60
2022/06/22 00:51:07;;;;;;;3.63;1.70;;;14.40;99.90;;;;;;5102006;28;20621;-60
2022/06/22 00:53:37;;;;;;;4.88;1.45;;;14.30;99.90;;;;;;5109780;28;20153;-61
2022/06/22 00:56:17;;;;;;;3.50;1.88;;;14.30;99.90;;;;;;5110225;28;20491;-61
2022/06/22 00:58:59;;;;;;;2.03;1.35;;;14.30;99.90;;;;;;5104242;28;20043;-61
2022/06/22 01:01:46;;;;;;;5.18;1.58;;;14.30;99.90;;;;;;5105985;28;20113;-61
2022/06/22 01:04:33;;;;;;;4.20;1.83;;;14.30;99.90;;;;;;5110002;28;20044;-60
2022/06/22 01:07:17;;;;;;;;;;;14.30;99.90;;;;;;5109420;28;20097;-61
2022/06/22 01:10:04;;;;;;;2.20;1.45;;;14.30;99.90;;;;;;5090244;28;20037;-61
2022/06/22 01:12:48;;;;;;;3.55;1.63;;;14.30;99.90;;;;;;5110293;28;20039;-61
2022/06/22 01:15:27;;;;;;;11.63;1.60;;;14.30;99.90;;;;;;5109732;28;20093;-61
2022/06/22 01:18:05;;;;;;;4.32;1.73;;;14.30;99.90;;;;;;5110238;28;20047;-61
2022/06/22 01:20:59;;;;;;;4.30;1.42;;;14.30;99.90;;;;;;5109517;28;20488;-61
2022/06/22 01:24:03;;;;;;;5.13;1.90;;;14.30;99.90;;;;;;5110474;28;20039;-61
2022/06/22 01:27:02;;;;;;;8.80;1.50;;;14.30;99.90;;;;;;5111776;28;20731;-59
2022/06/22 01:29:28;;;;;;;3.65;1.40;;;14.30;99.90;;;;;;5075295;28;20035;-60
2022/06/22 01:31:59;;;;;;;;;;;14.20;99.90;;;;;;5107920;28;20043;-61
2022/06/22 01:34:33;;;;;;;3.08;1.17;;;14.20;99.90;;;;;;5111633;28;19920;-61
2022/06/22 01:37:25;;;;;;;3.33;1.48;;;14.20;99.90;;;;;;5110065;28;20388;-60
2022/06/22 01:39:58;;;;;;;2.38;1.60;;;14.20;99.90;;;;;;5109747;28;20047;-60
2022/06/22 01:42:34;;;;;;;3.28;1.27;;;14.20;99.90;;;;;;5109724;28;20097;-58
2022/06/22 01:45:05;;;;;;;4.10;1.77;;;14.20;99.90;;;;;;5107676;28;20036;-59
2022/06/22 01:47:45;;;;;;;2.50;1.40;;;14.20;99.90;;;;;;5109450;28;20047;-60
2022/06/22 01:50:48;;;;;;;2.13;1.40;;;14.20;99.90;;;;;;5109155;28;20038;-60
2022/06/22 01:53:17;;;;;;;2.88;1.60;;;14.10;99.90;;;;;;5091999;28;20543;-59
2022/06/22 01:56:22;;;;;;;2.47;1.50;;;14.10;99.90;;;;;;5103143;28;20052;-56
2022/06/22 01:59:31;;;;;;;2.08;1.20;;;14.10;99.90;;;;;;5108645;28;20070;-60
2022/06/22 02:02:15;;;;;;;3.47;1.92;;;14.10;99.90;;;;;;5100436;28;20048;-60
2022/06/22 02:04:49;;;;;;;4.15;1.75;;;14.10;99.90;;;;;;5108246;28;20043;-60
2022/06/22 02:07:52;;;;;;;4.18;1.67;;;14.10;99.90;;;;;;5108560;28;20281;-60
2022/06/22 02:10:30;;;;;;;3.45;1.63;;;14.00;99.90;;;;;;5065537;27;20044;-60
2022/06/22 02:13:08;;;;;;;4.07;1.67;;;14.00;99.90;;;;;;5108363;28;20047;-60
2022/06/22 02:15:39;;;;;;;3.88;2.08;;;14.00;99.90;;;;;;5108316;28;20495;-60
2022/06/22 02:18:19;;;;;;;4.38;1.45;;;13.90;99.90;;;;;;5108378;28;20040;-60
2022/06/22 02:20:45;;;;;;;4.95;1.50;;;13.80;99.90;;;;;;5107912;28;20084;-60
2022/06/22 02:23:14;;;;;;;;;;;13.80;99.90;;;;;;5108419;28;20047;-59
2022/06/22 02:25:51;;;;;;;3.40;1.65;;;13.80;99.90;;;;;;5107837;28;19973;-58
2022/06/22 02:28:17;;;;;;;2.38;1.50;;;13.80;99.90;;;;;;5106381;28;20039;-60
2022/06/22 02:30:43;;;;;;;;;;;13.70;99.90;;;;;;5107292;28;20496;-60
2022/06/22 02:33:10;;;;;;;4.03;1.60;;;13.60;99.90;;;;;;5109070;28;19915;-60
2022/06/22 02:35:38;;;;;;;4.78;1.60;;;13.60;99.90;;;;;;5107977;28;20047;-59
2022/06/22 02:38:07;;;;;;;7.97;2.58;;;13.50;99.90;;;;;;5107900;28;20051;-58
2022/06/22 02:44:29;;;;;;;4.32;1.67;;;13.50;99.90;;;;;;5108346;28;20437;-60
2022/06/22 02:46:17;;;;;;;5.38;1.48;;;13.40;99.90;;;;;;5101477;28;20525;-58
2022/06/22 02:48:49;;;;;;;2.67;1.50;;;13.30;99.90;;;;;;5108210;28;20137;-60
2022/06/22 02:51:28;;;;;;;2.95;1.75;;;13.30;99.90;;;;;;5106937;28;20039;-58
2022/06/22 02:53:57;;;;;;;3.50;1.73;;;13.20;99.90;;;;;;5087400;28;20070;-57
2022/06/22 02:56:31;;;;;;;6.68;2.00;;;13.20;99.90;;;;;;5099792;28;20051;-60
2022/06/22 02:58:57;;;;;;;2.40;1.67;;;13.10;99.90;;;;;;5107592;28;20446;-57
2022/06/22 03:01:23;;;;;;;;;;;13.10;99.90;;;;;;5109189;28;20067;-57
2022/06/22 03:03:55;;;;;;;3.22;1.70;;;13.10;99.90;;;;;;5108186;28;19973;-59
2022/06/22 03:06:27;;;;;;;6.68;1.73;;;13.00;99.90;;;;;;5108839;28;20136;-58
2022/06/22 03:08:53;;;;;;;4.63;1.67;;;13.00;99.90;;;;;;5108077;28;20052;-57
2022/06/22 03:11:20;;;;;;;3.72;1.90;;;13.00;99.90;;;;;;5107677;28;20040;-60
2022/06/22 03:14:15;;;;;;;2.30;1.40;;;13.00;99.90;;;;;;5106850;28;20044;-60
2022/06/22 03:16:44;;;;;;;4.72;2.20;;;12.90;99.90;;;;;;5107464;28;20047;-60
2022/06/22 03:19:17;;;;;;;2.42;1.70;;;13.00;99.90;;;;;;5107784;28;20052;-60
2022/06/22 03:21:43;;;;;;;4.80;2.20;;;13.00;99.90;;;;;;5108260;28;20043;-60
2022/06/22 03:24:08;;;;;;;;;;;13.00;99.90;;;;;;5109131;28;20404;-58
2022/06/22 03:26:40;;;;;;;5.90;1.50;;;12.90;99.90;;;;;;5107978;28;19923;-56
2022/06/22 03:29:27;;;;;;;10.95;2.17;;;12.80;99.90;;;;;;5107301;28;20097;-59
2022/06/22 03:32:13;;;;;;;2.78;1.63;;;12.80;99.90;;;;;;5086116;28;20624;-60
2022/06/22 03:34:44;;;;;;;2.13;1.27;;;12.80;99.90;;;;;;5087847;28;20043;-60
2022/06/22 03:37:17;;;;;;;3.40;1.42;;;12.70;99.90;;;;;;5087545;28;20110;-61
2022/06/22 03:39:48;;;;;;;5.15;1.80;;;12.70;99.90;;;;;;5087431;28;20097;-60
2022/06/22 03:42:19;;;;;;;2.78;1.90;;;12.80;99.90;;;;;;5086550;28;20075;-60
2022/06/22 03:45:11;;;;;;;4.90;2.17;;;12.80;99.90;;;;;;5087228;28;20107;-59
2022/06/22 03:47:56;;;;;;;4.25;1.60;;;13.00;99.90;;;;;;5105551;28;20048;-60
2022/06/22 03:50:40;;;;;;;4.90;1.77;;;13.40;99.90;;;;;;5107432;28;20107;-60
2022/06/22 03:53:21;;;;;;;2.70;1.20;;;13.50;99.90;;;;;;5108583;28;20054;-60
2022/06/22 03:55:50;;;;;;;4.30;1.70;;;13.80;99.90;;;;;;5110659;28;20049;-60
2022/06/22 03:58:16;;;;;;;1.95;1.55;;;14.00;99.90;;;;;;5110702;28;20039;-60
2022/06/22 04:00:45;;;;;;;2.05;1.50;;;14.00;99.90;;;;;;5103245;28;20051;-60
2022/06/22 04:03:15;;;;;;;3.50;1.73;;;13.80;99.90;;;;;;5095449;27;20412;-60
2022/06/22 04:06:03;;;;;;;3.53;1.83;;;13.70;99.90;;;;;;5107125;28;20202;-60
2022/06/22 04:08:35;;;;;;;5.43;2.15;;;13.60;99.90;;;;;;5096794;28;20643;-60
2022/06/22 04:11:29;;;;;;;4.65;1.73;;;13.60;99.90;;;;;;5107639;28;20059;-60
2022/06/22 04:14:06;;;;;;;4.32;1.80;;;13.60;99.90;;;;;;5107000;28;20043;-60
2022/06/22 04:16:38;;;;;;;5.53;1.40;;;13.70;99.90;;;;;;5098567;28;20050;-60
2022/06/22 04:19:27;;;;;;;3.55;1.60;;;13.80;99.90;;;;;;5100660;28;20078;-60
2022/06/22 04:22:11;;;;;;;3.30;1.55;;;14.20;99.90;;;;;;5107100;28;20070;-60
2022/06/22 04:25:11;;;;;;;3.72;1.60;;;14.60;99.90;;;;;;5109739;28;20058;-59
2022/06/22 04:27:40;;;;;;;2.53;1.60;;;14.30;99.90;;;;;;5106343;28;20047;-59
2022/06/22 04:30:18;;;;;;;4.82;1.83;;;14.30;99.90;;;;;;5108249;28;20662;-60
2022/06/22 04:33:07;;;;;;;3.05;1.55;;;14.30;99.90;;;;;;5109056;28;20404;-61
2022/06/22 04:35:56;;;;;;;2.78;1.40;;;14.60;99.90;;;;;;5109386;28;20084;-61
2022/06/22 04:38:26;;;;;;;4.45;1.30;;;14.90;99.90;;;;;;5109561;28;20123;-60
2022/06/22 04:41:10;;;;;;;1.58;1.30;;;15.10;99.90;;;;;;5109023;28;20047;-60
2022/06/22 04:43:37;;;;;;;7.43;1.70;;;15.10;99.90;;;;;;5109436;28;20046;-60
2022/06/22 04:46:06;;;;;;;1.75;1.42;;;15.00;99.90;;;;;;5108475;28;20050;-59
2022/06/22 04:48:46;;;;;;;3.63;1.48;;;14.90;99.90;;;;;;5108711;28;20040;-64
2022/06/22 04:51:18;;;;;;;3.92;1.35;;;14.80;99.90;;;;;;5109086;28;20067;-60
2022/06/22 04:53:56;;;;;;;5.93;1.70;;;14.90;99.90;;;;;;5109649;28;20045;-61
2022/06/22 04:56:38;;;;;;;9.07;1.80;;;14.90;99.90;;;;;;5108956;28;20075;-61
2022/06/22 04:59:05;;;;;;;4.82;1.75;;;15.20;99.90;;;;;;5108085;28;20044;-62
2022/06/22 05:01:37;;;;;;;4.20;1.70;;;15.20;99.90;;;;;;5107578;28;20048;-61
2022/06/22 05:04:13;;;;;;;4.20;1.58;;;15.00;99.90;;;;;;5108539;28;20039;-60
2022/06/22 05:07:01;;;;;;;3.22;1.42;;;15.00;99.90;;;;;;5108103;28;20071;-61
2022/06/22 05:10:02;;;;;;;4.00;1.50;;;15.10;99.90;;;;;;5109654;28;20042;-61
2022/06/22 05:12:31;;;;;;;6.15;1.92;;;15.10;99.90;;;;;;5108628;28;20472;-61
2022/06/22 05:15:00;;;;;;;3.72;1.40;;;15.10;99.90;;;;;;5109380;27;20075;-61
2022/06/22 05:17:31;;;;;;;2.42;1.40;;;15.10;99.90;;;;;;5109085;28;20052;-61
2022/06/22 05:20:00;;;;;;;5.43;1.30;;;15.10;99.90;;;;;;5108685;28;20403;-61
2022/06/22 05:22:26;;;;;;;4.70;1.40;;;15.20;99.90;;;;;;5108471;28;20124;-61
2022/06/22 05:25:00;;;;;;;;;;;15.40;99.90;;;;;;5109326;28;20082;-61
2022/06/22 05:27:30;;;;;;;5.43;1.50;;;15.40;99.90;;;;;;5108253;28;19927;-61
2022/06/22 05:30:05;;;;;;;2.00;1.45;;;15.70;99.90;;;;;;5109187;28;20047;-61
2022/06/22 05:32:38;;;;;;;3.17;1.60;;;15.70;99.80;;;;;;5107537;27;20480;-60
2022/06/22 05:35:11;;;;;;;2.78;1.13;;;15.80;99.90;;;;;;5108095;28;20115;-60
2022/06/22 05:37:43;;;;;;;2.80;2.33;;;16.10;99.90;;;;;;5107981;28;20126;-61
2022/06/22 05:40:10;;;;;;;3.28;1.42;;;16.30;99.90;;;;;;5109159;28;20089;-59
2022/06/22 05:42:36;;;;;;;5.03;1.20;;;16.50;99.80;;;;;;5109186;28;20055;-60
2022/06/22 05:45:03;;;;;;;2.92;1.55;;;16.60;99.60;;;;;;5108822;27;20028;-60
2022/06/22 05:47:31;;;;;;;2.10;1.20;;;16.90;99.10;;;;;;5108788;28;20403;-60
2022/06/22 05:50:40;;;;;;;3.35;1.45;;;17.00;98.80;;;;;;5108571;28;20074;-60
2022/06/22 05:53:20;;;;;;;3.60;1.90;;;17.00;99.00;;;;;;5108574;28;20067;-60
2022/06/22 05:55:48;;;;;;;3.58;1.25;;;16.90;99.10;;;;;;5100294;28;20047;-60
2022/06/22 05:58:26;;;;;;;1.58;1.10;;;16.80;99.80;;;;;;5089515;28;20043;-60
2022/06/22 06:00:54;;;;;;;3.85;1.60;;;16.90;98.60;;;;;;5098353;28;20032;-59
2022/06/22 06:03:40;;;;;;;1.75;1.40;;;17.10;98.50;;;;;;5108012;28;20036;-60
2022/06/22 06:06:23;;;;;;;5.57;1.60;;;17.40;98.00;;;;;;5106133;28;20530;-61
2022/06/22 06:09:01;;;;;;;4.30;1.40;;;17.60;97.50;;;;;;5107538;28;20086;-60
2022/06/22 06:11:38;;;;;;;5.15;1.52;;;17.50;97.10;;;;;;5107547;28;20118;-60
2022/06/22 06:14:13;;;;;;;5.07;1.75;;;17.70;97.80;;;;;;5107829;28;20046;-61
2022/06/22 06:16:47;;;;;;;4.15;1.35;;;18.30;97.50;;;;;;5106606;28;20130;-61
2022/06/22 06:19:21;;;;;;;2.17;1.13;;;19.10;96.90;;;;;;5108186;28;20043;-61
2022/06/22 06:21:53;;;;;;;4.82;1.13;;;20.70;90.50;;;;;;5105960;28;20130;-61
2022/06/22 06:24:40;;;;;;;1.83;1.40;;;20.60;89.20;;;;;;5106797;28;20534;-61
2022/06/22 06:30:13;;;;;;;3.97;1.35;;;20.20;91.40;;;;;;5100861;28;20032;-61
2022/06/22 06:32:47;;;;;;;6.57;1.45;;;19.60;90.80;;;;;;5104786;28;20047;-61
2022/06/22 06:35:42;;;;;;;5.25;1.60;;;19.50;91.30;;;;;;5092606;28;20092;-61
2022/06/22 06:38:13;;;;;;;6.55;1.40;;;19.50;90.50;;;;;;5098033;28;20108;-61
2022/06/22 06:41:01;;;;;;;4.28;1.70;;;19.60;91.60;;;;;;5104510;28;20085;-61
2022/06/22 06:44:21;;;;;;;4.43;1.77;;;19.50;91.70;;;;;;5102058;28;20035;-61
2022/06/22 06:46:51;;;;;;;5.57;1.70;;;19.10;92.00;;;;;;5040794;28;20446;-61
2022/06/22 06:50:30;;;;;;;6.25;2.08;;;19.10;92.30;;;;;;5089779;28;20051;-61
2022/06/22 06:53:00;;;;;;;3.53;1.38;;;19.40;91.30;;;;;;5001117;28;20100;-62
2022/06/22 06:55:37;;;;;;;6.20;1.88;;;19.80;90.80;;;;;;5025596;28;20103;-61
2022/06/22 06:58:47;;;;;;;3.28;1.17;;;20.60;89.60;;;;;;5089459;28;20526;-62
2022/06/22 07:01:25;;;;;;;8.50;1.13;;;20.60;87.60;;;;;;5011577;28;20088;-61
2022/06/22 07:04:08;;;;;;;2.15;0.98;;;20.50;88.30;;;;;;4994246;28;20469;-61
2022/06/22 07:06:34;;;;;;;2.25;0.93;;;20.30;88.30;;;;;;5057400;28;20060;-61
2022/06/22 07:09:26;;;;;;;1.80;0.90;;;20.20;90.00;;;;;;5082076;28;20101;-61
2022/06/22 07:12:02;;;;;;;3.80;1.33;;;20.00;87.20;;;;;;5072040;28;20050;-61
2022/06/22 07:14:41;;;;;;;1.97;0.93;;;19.80;89.00;;;;;;5085906;28;20044;-61
2022/06/22 07:17:23;;;;;;;5.82;1.10;;;19.70;88.20;;;;;;5085174;28;20044;-61
2022/06/22 07:19:59;;;;;;;1.70;0.80;;;19.70;84.80;;;;;;5079821;28;20093;-61
2022/06/22 07:22:36;;;;;;;6.70;1.30;;;19.90;86.80;;;;;;5085112;28;20044;-62
2022/06/22 07:25:33;;;;;;;3.70;1.38;;;20.60;83.70;;;;;;5081132;28;20074;-61
2022/06/22 07:28:33;;;;;;;2.65;1.00;;;20.60;84.00;;;;;;5083212;28;20044;-61
2022/06/22 07:31:19;;;;;;;5.40;1.30;;;20.40;85.50;;;;;;5089775;28;20506;-60
2022/06/22 07:33:48;;;;;;;1.83;1.00;;;20.50;85.00;;;;;;5110215;28;20516;-59
2022/06/22 07:36:20;;;;;;;3.75;1.02;;;20.30;84.10;;;;;;5109991;28;20472;-60
2022/06/22 07:38:58;;;;;;;2.60;1.10;;;20.20;89.70;;;;;;5111280;28;20463;-61
2022/06/22 07:41:26;;;;;;;2.45;1.10;;;20.10;86.90;;;;;;5109905;28;20067;-61
2022/06/22 07:44:21;;;;;;;5.38;1.20;;;20.20;86.80;;;;;;5110383;28;20047;-61
2022/06/22 07:46:50;;;;;;;4.55;1.30;;;20.00;83.70;;;;;;5109276;28;20054;-61
2022/06/22 07:49:27;;;;;;;2.78;1.20;;;19.90;83.90;;;;;;5110017;28;20691;-61
2022/06/22 07:51:58;;;;;;;5.93;1.35;;;19.90;87.70;;;;;;5109041;28;20070;-61
2022/06/22 07:54:28;;;;;;;1.95;1.00;;;20.00;87.80;;;;;;5107907;28;20043;-61
2022/06/22 07:57:05;;;;;;;1.75;0.95;;;20.10;90.80;;;;;;5105689;28;20640;-61
2022/06/22 07:59:48;;;;;;;2.67;1.00;;;20.20;85.90;;;;;;5109677;28;20566;-61
2022/06/22 08:02:25;;;;;;;1.58;0.85;;;20.30;88.00;;;;;;5108371;28;20749;-61
2022/06/22 08:04:58;;;;;;;3.53;1.02;;;20.40;87.50;;;;;;5108577;28;20039;-61
2022/06/22 08:07:36;;;;;;;2.40;0.95;;;20.60;83.10;;;;;;5109813;28;20415;-61
2022/06/22 08:10:14;;;;;;;2.47;0.70;;;20.80;84.00;;;;;;5110224;28;20031;-61
2022/06/22 08:12:53;;;;;;;5.07;0.90;;;21.70;77.70;;;;;;5109666;27;20040;-61
2022/06/22 08:15:22;;;;;;;3.22;1.33;;;23.10;79.30;;;;;;5109310;28;20526;-61
2022/06/22 08:17:50;;;;;;;1.23;0.80;;;23.40;72.10;;;;;;5107516;28;21625;-62
2022/06/22 08:20:20;;;;;;;3.20;1.00;;;23.20;77.20;;;;;;5102130;28;20123;-62
2022/06/22 08:22:48;;;;;;;3.20;0.90;;;23.10;76.90;;;;;;5108355;28;20039;-61
2022/06/22 08:25:17;;;;;;;4.93;1.25;;;22.70;74.00;;;;;;5110073;28;20495;-61
2022/06/22 08:27:43;;;;;;;2.55;0.80;;;22.40;75.20;;;;;;5108136;28;20066;-61
2022/06/22 08:30:11;;;;;;;2.88;1.42;;;22.10;77.80;;;;;;5103443;28;20032;-61
2022/06/22 08:32:46;;;;;;;2.78;1.50;;;21.70;77.70;;;;;;5109473;28;20035;-61
2022/06/22 08:35:18;;;;;;;3.78;1.40;;;21.60;77.30;;;;;;5112531;28;20040;-61
2022/06/22 08:37:49;;;;;;;10.63;1.20;;;22.40;76.10;;;;;;5110156;28;20051;-62
2022/06/22 08:40:23;;;;;;;6.20;1.38;;;23.30;73.10;;;;;;5110403;28;20059;-62
2022/06/22 08:43:25;;;;;;;3.60;1.20;;;23.90;70.00;;;;;;5110436;28;20031;-61
2022/06/22 08:46:16;;;;;;;1.77;1.10;;;25.00;67.00;;;;;;5109814;28;20047;-62
2022/06/22 08:48:57;;;;;;;5.43;1.08;;;25.40;63.90;;;;;;5109771;28;20046;-62
2022/06/22 08:51:37;;;;;;;3.72;1.00;;;26.80;62.40;;;;;;5109572;28;20051;-61
2022/06/22 08:54:24;;;;;;;4.50;1.20;;;27.40;60.90;;;;;;5108194;28;20035;-62
2022/06/22 08:57:03;;;;;;;2.15;1.02;;;26.50;60.70;;;;;;5109638;28;20132;-62
2022/06/22 08:59:39;;;;;;;2.50;1.10;;;25.10;64.60;;;;;;5109909;28;20122;-61
2022/06/22 09:02:50;;;;;;;5.70;1.35;;;24.50;65.10;;;;;;5108951;28;20051;-61
2022/06/22 09:05:30;;;;;;;4.60;1.50;;;23.60;68.30;;;;;;5093723;28;20051;-61
2022/06/22 09:08:24;;;;;;;6.18;2.00;;;23.00;70.00;;;;;;5109577;28;20050;-61
2022/06/22 09:11:20;;;;;;;2.38;1.80;;;22.70;71.30;;;;;;5109004;28;20492;-61
2022/06/22 09:13:49;;;;;;;4.50;1.52;;;22.50;72.20;;;;;;5109703;28;20546;-61
2022/06/22 09:16:36;;;;;;;4.30;1.25;;;22.50;71.90;;;;;;5107690;28;20507;-61
2022/06/22 09:19:08;;;;;;;3.80;1.40;;;22.40;73.20;;;;;;5098592;28;20043;-61
2022/06/22 09:21:50;;;;;;;3.50;1.65;;;22.20;75.90;;;;;;5107586;28;20039;-61
2022/06/22 09:24:21;;;;;;;3.22;1.10;;;22.10;75.50;;;;;;5108154;28;20111;-61
2022/06/22 09:27:08;;;;;;;2.70;1.05;;;22.20;71.30;;;;;;5108642;28;20407;-61
2022/06/22 09:29:46;;;;;;;3.80;1.33;;;22.30;72.40;;;;;;5109060;28;20043;-61
2022/06/22 09:32:49;;;;;;;2.35;1.02;;;22.30;71.90;;;;;;5107846;28;20036;-61
2022/06/22 09:35:42;;;;;;;6.40;1.40;;;22.10;74.10;;;;;;5109313;28;20040;-60
2022/06/22 09:38:20;;;;;;;4.80;1.08;;;22.00;71.80;;;;;;5109503;28;20043;-61
2022/06/22 09:41:17;;;;;;;3.33;1.35;;;22.00;71.40;;;;;;5088041;28;20044;-60
2022/06/22 09:44:01;;;;;;;4.53;1.27;;;22.10;70.00;;;;;;5091930;28;20130;-61
2022/06/22 09:46:40;;;;;;;3.10;1.02;;;22.00;69.80;;;;;;5108376;28;20046;-63
2022/06/22 09:49:21;;;;;;;3.03;1.10;;;22.00;71.70;;;;;;5108836;28;20040;-61
2022/06/22 09:52:17;;;;;;;4.18;1.20;;;22.10;73.30;;;;;;5108478;28;20447;-61
2022/06/22 09:58:38;;;;;;;4.70;1.20;;;22.10;67.80;;;;;;5045328;28;20088;-61
2022/06/22 10:01:25;;;;;;;3.15;1.40;;;22.20;69.20;;;;;;5038561;28;20048;-61
2022/06/22 10:04:27;;;;;;;2.67;1.27;;;22.40;69.20;;;;;;5095141;28;20048;-61
2022/06/22 10:07:08;;;;;;;4.22;1.50;;;22.40;69.80;;;;;;5108512;28;20043;-62
2022/06/22 10:10:00;;;;;;;3.30;1.20;;;22.50;69.20;;;;;;5106498;28;20046;-61
2022/06/22 10:12:40;;;;;;;4.22;1.42;;;22.40;70.30;;;;;;5103003;28;20036;-62
2022/06/22 10:15:42;;;;;;;3.83;1.65;;;22.40;70.70;;;;;;5101947;28;20055;-61
2022/06/22 10:18:14;;;;;;;4.40;1.52;;;22.40;69.60;;;;;;5101815;28;20055;-61
2022/06/22 10:21:04;;;;;;;2.88;1.13;;;22.30;72.30;;;;;;5102155;28;20594;-61
2022/06/22 10:23:38;;;;;;;2.67;1.27;;;22.40;70.80;;;;;;5098045;28;20039;-61
2022/06/22 10:26:20;;;;;;;2.85;1.20;;;22.70;72.20;;;;;;5098355;28;20055;-61
2022/06/22 10:29:05;;;;;;;3.17;1.40;;;22.60;70.70;;;;;;5102577;28;20067;-63
2022/06/22 10:32:05;;;;;;;2.28;0.95;;;22.60;70.90;;;;;;5105123;28;20050;-63
2022/06/22 10:35:00;;;;;;;4.65;1.10;;;22.60;68.90;;;;;;5108460;28;20069;-62
2022/06/22 10:37:58;;;;;;;5.03;1.45;;;22.70;68.50;;;;;;5105258;28;20040;-63
2022/06/22 10:47:10;;;;;;;3.15;1.10;;;23.00;70.50;;;;;;5107273;28;20564;-63
2022/06/22 10:50:09;;;;;;;4.07;1.10;;;22.90;64.40;;;;;;5107682;28;20061;-63
2022/06/22 10:52:45;;;;;;;1.80;1.05;;;22.70;66.40;;;;;;5108045;28;20522;-63
2022/06/22 10:55:18;;;;;;;3.35;1.10;;;22.80;66.50;;;;;;5104266;28;20155;-62
2022/06/22 10:58:03;;;;;;;2.60;0.95;;;22.80;66.80;;;;;;5097449;28;20055;-62
2022/06/22 11:00:56;;;;;;;4.88;1.15;;;22.70;65.40;;;;;;5105489;27;20118;-63
2022/06/22 11:03:42;;;;;;;3.30;1.23;;;22.80;65.50;;;;;;5107978;28;20036;-62
2022/06/22 11:06:16;;;;;;;6.10;1.50;;;22.60;65.70;;;;;;5100142;28;20543;-62
2022/06/22 11:09:06;;;;;;;2.70;1.17;;;22.60;69.00;;;;;;5108204;28;20040;-62
2022/06/22 11:11:50;;;;;;;2.78;1.25;;;22.70;70.60;;;;;;5107612;28;20126;-62
2022/06/22 11:14:18;;;;;;;7.72;1.20;;;22.90;69.40;;;;;;5107469;28;20048;-62
2022/06/22 11:16:55;;;;;;;5.13;1.52;;;23.00;68.70;;;;;;5106764;28;20070;-62
2022/06/22 11:19:53;;;;;;;5.68;1.00;;;23.20;70.30;;;;;;5107746;28;20040;-62
2022/06/22 11:22:38;;;;;;;3.47;1.52;;;23.30;71.30;;;;;;5107075;28;20036;-62
2022/06/22 11:32:11;;;;;;;5.75;1.92;;;23.00;68.50;;;;;;5104240;28;20752;-62
2022/06/22 11:35:02;;;;;;;3.60;1.30;;;23.00;69.50;;;;;;5106780;28;20048;-62
2022/06/22 11:38:02;;;;;;;2.05;1.20;;;23.10;66.60;;;;;;5106929;28;20044;-62
2022/06/22 11:40:46;;;;;;;5.30;1.35;;;23.20;67.10;;;;;;5106935;28;20103;-62
2022/06/22 11:43:30;;;;;;;1.75;1.00;;;23.10;65.10;;;;;;5108032;28;20044;-62
2022/06/22 11:46:17;;;;;;;2.15;1.00;;;23.30;68.20;;;;;;5106984;28;20564;-62
2022/06/22 11:49:20;;;;;;;1.45;0.88;;;23.60;67.40;;;;;;5107207;28;20066;-63
2022/06/22 11:52:07;;;;;;;1.48;0.77;;;23.90;65.00;;;;;;5106879;28;20504;-62
2022/06/22 11:54:38;;;;;;;2.65;1.13;;;23.90;67.60;;;;;;5106719;28;20039;-62
2022/06/22 11:57:11;;;;;;;3.85;1.45;;;24.00;66.30;;;;;;5100976;28;20847;-62
2022/06/22 11:59:54;;;;;;;5.93;1.27;;;24.00;65.10;;;;;;5107108;28;20043;-62
2022/06/22 12:02:47;;;;;;;1.25;0.80;;;23.90;67.30;;;;;;5105651;28;20091;-62
2022/06/22 12:05:44;;;;;;;1.77;1.13;;;24.10;63.80;;;;;;5100643;28;20044;-62
2022/06/22 12:08:28;;;;;;;;;;;24.10;61.30;;;;;;5085903;28;20040;-62
2022/06/22 12:11:12;;;;;;;1.52;1.00;;;23.90;63.20;;;;;;5087761;28;19920;-62
2022/06/22 12:17:11;;;;;;;4.28;1.30;;;23.90;65.10;;;;;;5110830;28;20071;-62
2022/06/22 12:20:11;;;;;;;2.72;1.58;;;23.90;64.50;;;;;;5111457;28;20052;-64
2022/06/22 12:23:14;;;;;;;4.80;1.02;;;24.10;63.30;;;;;;5110436;28;20492;-62
2022/06/22 12:26:04;;;;;;;2.00;1.10;;;24.10;65.30;;;;;;5108362;28;20043;-63
2022/06/22 12:29:04;;;;;;;1.98;1.33;;;24.20;62.50;;;;;;5108201;28;20478;-62
2022/06/22 12:31:48;;;;;;;5.13;1.40;;;24.00;63.00;;;;;;5109732;27;20483;-63
2022/06/22 12:34:16;;;;;;;2.78;1.13;;;24.10;65.00;;;;;;5110017;28;20048;-62
2022/06/22 12:36:48;;;;;;;5.13;1.70;;;24.30;63.90;;;;;;5111036;28;20047;-63
2022/06/22 12:39:14;;;;;;;5.18;1.52;;;24.20;63.50;;;;;;5110980;28;20496;-63
2022/06/22 12:41:50;;;;;;;4.50;1.30;;;24.20;62.30;;;;;;5110926;28;20035;-63
2022/06/22 12:44:28;;;;;;;2.22;1.35;;;24.10;62.90;;;;;;5110356;28;20032;-62
2022/06/22 12:47:05;;;;;;;3.33;1.05;;;24.10;64.80;;;;;;5101332;28;20044;-62
2022/06/22 12:49:52;;;;;;;4.88;1.20;;;24.30;63.10;;;;;;5110313;28;20488;-63
2022/06/22 12:52:38;;;;;;;3.30;1.50;;;24.30;62.80;;;;;;5109033;28;20111;-63
2022/06/22 12:55:21;;;;;;;1.98;1.17;;;24.20;64.20;;;;;;5108964;28;20102;-64
2022/06/22 12:57:59;;;;;;;3.13;1.10;;;24.10;62.20;;;;;;5109991;27;20152;-62
2022/06/22 13:00:25;;;;;;;9.20;1.30;;;24.10;62.70;;;;;;5108265;28;20040;-62
2022/06/22 13:02:57;;;;;;;2.05;1.13;;;24.10;62.50;;;;;;5109317;28;20808;-62
2022/06/22 13:05:32;;;;;;;4.03;1.45;;;24.30;63.30;;;;;;5109530;28;20031;-62
2022/06/22 13:08:01;;;;;;;3.42;1.17;;;24.40;63.20;;;;;;5098687;28;20048;-62
2022/06/22 13:10:34;;;;;;;3.13;1.20;;;24.30;64.50;;;;;;5108948;28;20143;-62
2022/06/22 13:13:21;;;;;;;6.20;1.27;;;24.50;63.30;;;;;;5104848;28;20043;-62
2022/06/22 13:15:52;;;;;;;2.22;1.02;;;24.50;63.30;;;;;;5103707;28;20027;-62
2022/06/22 13:18:18;;;;;;;5.47;1.55;;;24.30;64.00;;;;;;5108553;28;20173;-63
2022/06/22 13:20:50;;;;;;;3.97;1.60;;;24.40;65.10;;;;;;5106219;28;20130;-63
2022/06/22 13:23:25;;;;;;;2.97;1.13;;;24.40;64.40;;;;;;5104585;28;20023;-62
2022/06/22 13:26:16;;;;;;;1.90;1.10;;;24.60;62.30;;;;;;5101103;28;20037;-61
2022/06/22 13:29:05;;;;;;;4.25;1.67;;;24.50;63.30;;;;;;5108943;28;20516;-62
2022/06/22 13:31:36;;;;;;;5.43;1.30;;;24.50;62.20;;;;;;5107820;28;20065;-62
2022/06/22 13:34:09;;;;;;;5.95;1.38;;;24.30;63.20;;;;;;5109238;28;20115;-63
2022/06/22 13:37:00;;;;;;;5.47;1.40;;;24.50;64.70;;;;;;5108283;28;20089;-63
2022/06/22 13:39:45;;;;;;;1.42;1.00;;;24.50;63.00;;;;;;5069586;28;20059;-63
2022/06/22 13:42:23;;;;;;;2.65;1.02;;;24.60;62.90;;;;;;5089281;28;20043;-63
2022/06/22 13:45:01;;;;;;;4.18;1.73;;;24.50;63.30;;;;;;5087468;28;20024;-62
2022/06/22 13:48:01;;;;;;;2.38;1.25;;;24.40;60.90;;;;;;5106207;28;20780;-63
2022/06/22 13:50:36;;;;;;;3.38;1.30;;;24.40;64.80;;;;;;5108823;28;20042;-62
2022/06/22 13:53:21;;;;;;;3.38;1.00;;;24.60;62.80;;;;;;5108552;28;20031;-62
2022/06/22 13:55:53;;;;;;;7.03;1.17;;;24.80;60.00;;;;;;5108409;28;20117;-63
2022/06/22 13:58:23;;;;;;;2.83;1.27;;;24.80;60.00;;;;;;5108905;28;20032;-63
2022/06/22 14:00:57;;;;;;;2.63;0.98;;;24.90;59.70;;;;;;5106510;28;20036;-63
2022/06/22 14:03:28;;;;;;;3.35;1.35;;;25.00;61.90;;;;;;5094617;28;20040;-62
2022/06/22 14:06:29;;;;;;;2.10;1.30;;;25.20;59.80;;;;;;5088160;28;20559;-63
2022/06/22 14:09:13;;;;;;;3.72;1.38;;;25.30;61.40;;;;;;5086306;27;20093;-62
2022/06/22 14:12:03;;;;;;;4.28;1.40;;;25.20;61.30;;;;;;5109098;28;20126;-62
2022/06/22 14:14:54;;;;;;;3.65;0.90;;;25.00;64.00;;;;;;5108610;28;20042;-62
2022/06/22 14:17:32;;;;;;;2.45;1.17;;;25.10;62.40;;;;;;5108077;28;20048;-62
2022/06/22 14:20:18;;;;;;;5.93;2.03;;;25.40;63.30;;;;;;5107787;28;20707;-62
2022/06/22 14:22:54;;;;;;;2.78;1.17;;;25.20;61.20;;;;;;5106769;28;20097;-62